METAR AND TAF INFORMATION
METAR FOR NTAA
ADDS - METARS form results

(1720 UTC 18 January 2018)
Data provider http://aviationweather.gov/adds/metars/
 
METAR text: NTAA 181700Z VRB02KT 9999 FEW023 BKN260 26/24 Q1013 NOSIG
Conditions at: NTAA (TAHITI-FAAA POLY, WS) observed 1700 UTC 18 January 2018
Temperature: 26.0°C (79°F)
Dewpoint: 24.0°C (75°F) [RH = 89%]
Pressure (altimeter): 29.91 inches Hg (1013.0 mb)
Winds: variable direction winds at 2 MPH (2 knots; 1.0 m/s)
Visibility: 6 or more miles (10+ km)
Ceiling: 26000 feet AGL
Clouds: few clouds at 2300 feet AGL
broken clouds at 26000 feet AGL
Weather: no significant weather observed at this time

METAR text: NTAA 181630Z 16002KT 9999 FEW023 SCT066 25/23 Q1013 NOSIG
Conditions at: NTAA (TAHITI-FAAA POLY, WS) observed 1630 UTC 18 January 2018
Temperature: 25.0°C (77°F)
Dewpoint: 23.0°C (73°F) [RH = 89%]
Pressure (altimeter): 29.91 inches Hg (1013.0 mb)
Winds: from the SSE (160 degrees) at 2 MPH (2 knots; 1.0 m/s)
Visibility: 6 or more miles (10+ km)
Ceiling: at least 12,000 feet AGL
Clouds: few clouds at 2300 feet AGL
scattered clouds at 6600 feet AGL
Weather: no significant weather observed at this time

Forecast for: NTAA (TAHITI-FAAA POLY, WS)
Text: TAF NTAA 181700Z 1818/1924 VRB05KT 9999 FEW020TCU SCT020 SCT045
Forecast period: 1800 UTC 18 January 2018 to 0000 UTC 20 January 2018
Forecast type: FROM: standard forecast or significant change
Winds: variable direction winds at 6 MPH (5 knots; 2.6 m/s)
Visibility: 6 or more miles (10+ km)
Clouds: few clouds at 2000 feet AGL
scattered clouds at 2000 feet AGL
scattered clouds at 4500 feet AGL
Weather: no significant weather forecast for this period
Text: PROB30
Forecast period: 1800 UTC 18 January 2018 to 0400 UTC 19 January 2018
Forecast type: TEMPORARY: The following changes expected for less than half the time period
Winds: from the ENE (60 degrees) at 23 MPH (20 knots; 10.4 m/s)
gusting to 34 MPH (30 knots; 15.6 m/s)
Visibility: 1.24 miles (2.00 km)
Ceiling: 1600 feet AGL
Clouds: broken clouds at 1600 feet AGL
broken clouds at 4000 feet AGL
Weather: SHRA  (rain showers)

 AIRPORT MAP

 RUNWAY INFORMATION
Runway 04 Runway length 11360 ft Runway width 148 ft
Runway elevation 5 ft Runway displaced threshold 1120 ft Runway heading 54
Runway 22 Runway length 11360 ft Runway width 148 ft
Runway elevation 5 ft Runway displaced threshold 390 ft Runway heading 234

 AIRPORT FREQUENCIES
Type APP Name APP Frequency 118.1 MHZ
Type ATIS Name ATIS Frequency 128.8 MHZ
Type GND Name GND Frequency 121.9 MHZ
Type TWR Name TWR Frequency 118.1 MHZ

 AIRPORT NEAR NAVIGATION AIDS
Type NDB Name Tahiti Faaa Frequency 305 KHZ
Type VOR-DME Name Tahiti Faaa Frequency 112900 KHZ



v2.6.1